createdAt,value
2018-12-24T00:01:52.045Z,12.10
2018-12-24T00:04:18.985Z,12.10
2018-12-24T00:06:45.932Z,12.10
2018-12-24T00:09:12.916Z,12.10
2018-12-24T00:11:39.887Z,12.10
2018-12-24T00:14:06.836Z,12.10
2018-12-24T00:16:33.787Z,12.10
2018-12-24T00:19:00.715Z,12.20
2018-12-24T00:21:27.660Z,12.10
2018-12-24T00:23:54.627Z,12.20
2018-12-24T00:26:21.557Z,12.20
2018-12-24T00:28:48.500Z,12.20
2018-12-24T00:31:15.467Z,12.20
2018-12-24T00:33:42.402Z,12.20
2018-12-24T00:36:09.344Z,12.20
2018-12-24T00:38:36.296Z,12.20
2018-12-24T00:41:03.247Z,12.20
2018-12-24T00:43:30.171Z,12.30
2018-12-24T00:45:57.132Z,12.20
2018-12-24T00:48:24.084Z,12.20
2018-12-24T00:50:51.035Z,12.20
2018-12-24T00:53:17.998Z,12.20
2018-12-24T00:55:44.951Z,12.20
2018-12-24T00:58:11.937Z,12.20
2018-12-24T01:00:39.433Z,12.20
2018-12-24T01:03:06.380Z,12.20
2018-12-24T01:05:33.308Z,12.10
2018-12-24T01:08:00.287Z,12.10
2018-12-24T01:10:27.236Z,12.10
2018-12-24T01:12:54.179Z,12.20
2018-12-24T01:15:21.145Z,12.10
2018-12-24T01:17:48.071Z,12.10
2018-12-24T01:20:15.043Z,12.20
2018-12-24T01:22:42.003Z,12.20
2018-12-24T01:25:08.952Z,12.20
2018-12-24T01:27:35.893Z,12.20
2018-12-24T01:30:02.937Z,12.20
2018-12-24T01:32:29.884Z,12.20
2018-12-24T01:34:56.849Z,12.30
2018-12-24T01:37:23.804Z,12.30
2018-12-24T01:39:50.745Z,12.30
2018-12-24T01:42:17.698Z,12.30
2018-12-24T01:44:44.649Z,12.30
2018-12-24T01:47:11.606Z,12.30
2018-12-24T01:49:38.549Z,12.90
2018-12-24T01:52:05.690Z,12.30
2018-12-24T01:54:32.521Z,12.20
2018-12-24T01:56:59.479Z,12.20
2018-12-24T01:59:26.449Z,12.20
2018-12-24T02:01:53.943Z,12.10
2018-12-24T02:04:20.888Z,12.10
2018-12-24T02:06:47.864Z,12.00
2018-12-24T02:09:14.818Z,12.00
2018-12-24T02:11:41.746Z,12.00
2018-12-24T02:14:08.699Z,11.30
2018-12-24T02:16:35.643Z,10.70
2018-12-24T02:19:02.592Z,10.20
2018-12-24T02:21:29.532Z,9.80
2018-12-24T02:23:56.480Z,9.50
2018-12-24T02:26:23.411Z,9.30
2018-12-24T02:28:50.381Z,9.10
2018-12-24T02:31:17.315Z,9.00
2018-12-24T02:33:44.256Z,9.00
2018-12-24T02:36:11.224Z,8.90
2018-12-24T02:38:38.181Z,8.80
2018-12-24T02:41:05.115Z,8.80
2018-12-24T02:43:32.099Z,8.90
2018-12-24T02:45:59.067Z,8.90
2018-12-24T02:48:26.024Z,8.80
2018-12-24T02:50:52.989Z,8.70
2018-12-24T02:53:19.932Z,8.80
2018-12-24T02:55:46.882Z,8.80
2018-12-24T02:58:13.837Z,8.70
2018-12-24T03:00:40.827Z,8.80
2018-12-24T03:03:08.256Z,8.70
2018-12-24T03:05:35.212Z,8.70
2018-12-24T03:08:02.168Z,8.80
2018-12-24T03:10:29.101Z,8.80
2018-12-24T03:13:02.550Z,8.80
2018-12-24T03:15:22.995Z,8.90
2018-12-24T03:17:50.071Z,8.90
2018-12-24T03:20:17.096Z,8.80
2018-12-24T03:22:44.028Z,8.80
2018-12-24T03:25:10.986Z,8.80
2018-12-24T03:27:37.949Z,8.80
2018-12-24T03:30:04.905Z,8.70
2018-12-24T03:32:31.836Z,8.70
2018-12-24T03:34:58.800Z,8.70
2018-12-24T03:37:25.740Z,8.60
2018-12-24T03:39:52.679Z,8.60
2018-12-24T03:42:19.638Z,8.70
2018-12-24T03:44:46.577Z,8.70
2018-12-24T03:47:13.515Z,8.70
2018-12-24T03:49:40.473Z,8.50
2018-12-24T03:52:07.427Z,8.40
2018-12-24T03:54:34.372Z,8.30
2018-12-24T03:57:01.338Z,8.20
2018-12-24T03:59:28.269Z,8.20
2018-12-24T04:01:55.203Z,8.30
2018-12-24T04:04:22.876Z,8.10
2018-12-24T04:06:49.824Z,8.10
2018-12-24T04:09:16.753Z,8.00
2018-12-24T04:11:43.717Z,7.90
2018-12-24T04:14:10.659Z,7.90
2018-12-24T04:16:37.640Z,8.00
2018-12-24T04:19:04.617Z,8.00
2018-12-24T04:21:31.557Z,8.00
2018-12-24T04:23:58.510Z,7.90
2018-12-24T04:26:25.474Z,7.80
2018-12-24T04:28:52.413Z,7.70
2018-12-24T04:31:19.356Z,7.70
2018-12-24T04:33:46.307Z,7.70
2018-12-24T04:36:13.242Z,7.50
2018-12-24T04:38:40.177Z,7.40
2018-12-24T04:41:07.143Z,7.40
2018-12-24T04:43:34.089Z,7.30
2018-12-24T04:46:01.031Z,7.30
2018-12-24T04:48:27.999Z,7.30
2018-12-24T04:50:54.931Z,7.10
2018-12-24T04:53:21.893Z,7.20
2018-12-24T04:55:48.845Z,7.20
2018-12-24T04:58:15.792Z,7.30
2018-12-24T05:00:42.756Z,7.10
2018-12-24T05:03:09.829Z,7.00
2018-12-24T05:05:37.168Z,7.10
2018-12-24T05:08:04.132Z,7.00
2018-12-24T05:10:31.104Z,7.10
2018-12-24T05:12:58.041Z,7.20
2018-12-24T05:15:24.984Z,6.50
2018-12-24T05:17:52.009Z,7.30
2018-12-24T05:20:18.954Z,7.30
2018-12-24T05:22:45.911Z,7.10
2018-12-24T05:25:12.910Z,7.30
2018-12-24T05:27:39.800Z,7.00
2018-12-24T05:30:06.757Z,7.10
2018-12-24T05:32:33.705Z,7.10
2018-12-24T05:35:00.653Z,7.20
2018-12-24T05:37:27.689Z,7.40
2018-12-24T05:39:54.559Z,7.10
2018-12-24T05:42:21.488Z,7.30
2018-12-24T05:44:48.446Z,7.20
2018-12-24T05:47:15.421Z,7.10
2018-12-24T05:49:42.364Z,7.10
2018-12-24T05:52:09.330Z,7.20
2018-12-24T05:54:36.296Z,7.10
2018-12-24T05:57:03.244Z,7.20
2018-12-24T05:59:30.183Z,7.00
2018-12-24T06:01:57.144Z,7.00
2018-12-24T06:04:24.082Z,7.10
2018-12-24T06:06:51.470Z,6.90
2018-12-24T06:09:18.436Z,6.80
2018-12-24T06:11:45.385Z,6.90
2018-12-24T06:14:12.316Z,7.00
2018-12-24T06:16:39.315Z,6.90
2018-12-24T06:19:06.281Z,6.90
2018-12-24T06:21:33.235Z,7.00
2018-12-24T06:24:00.192Z,7.00
2018-12-24T06:26:27.125Z,6.80
2018-12-24T06:28:54.064Z,6.90
2018-12-24T06:31:21.044Z,6.90
2018-12-24T06:33:47.987Z,7.00
2018-12-24T06:36:15.217Z,6.90
2018-12-24T06:38:42.196Z,6.80
2018-12-24T06:41:09.214Z,6.90
2018-12-24T06:43:36.115Z,7.00
2018-12-24T06:46:03.067Z,7.00
2018-12-24T06:48:30.029Z,7.00
2018-12-24T06:50:56.991Z,6.90
2018-12-24T06:53:23.943Z,6.90
2018-12-24T06:55:50.886Z,6.90
2018-12-24T06:58:17.832Z,6.80
2018-12-24T07:00:44.771Z,6.40
2018-12-24T07:03:11.715Z,6.90
2018-12-24T07:05:38.651Z,6.90
2018-12-24T07:08:06.102Z,7.10
2018-12-24T07:10:33.043Z,7.10
2018-12-24T07:12:59.975Z,6.80
2018-12-24T07:15:26.952Z,6.80
2018-12-24T07:17:53.884Z,6.90
2018-12-24T07:20:20.849Z,6.90
2018-12-24T07:22:47.795Z,7.00
2018-12-24T07:25:14.741Z,6.90
2018-12-24T07:27:41.675Z,6.90
2018-12-24T07:30:08.619Z,6.80
2018-12-24T07:32:35.572Z,6.90
2018-12-24T07:35:02.512Z,6.90
2018-12-24T07:37:29.463Z,7.20
2018-12-24T07:39:56.462Z,7.00
2018-12-24T07:42:24.413Z,6.60
2018-12-24T07:44:51.388Z,6.70
2018-12-24T07:47:18.323Z,6.50
2018-12-24T07:49:45.278Z,6.50
2018-12-24T07:52:12.259Z,6.40
2018-12-24T07:54:39.193Z,6.50
2018-12-24T07:57:06.145Z,6.40
2018-12-24T07:59:33.116Z,6.30
2018-12-24T08:02:00.077Z,6.50
2018-12-24T08:04:28.854Z,6.50
2018-12-24T08:06:53.992Z,6.40
2018-12-24T08:09:21.257Z,6.50
2018-12-24T08:11:48.206Z,6.40
2018-12-24T08:14:15.196Z,6.50
2018-12-24T08:16:42.137Z,6.60
2018-12-24T08:19:09.132Z,6.60
2018-12-24T08:21:36.091Z,6.70
2018-12-24T08:24:03.051Z,7.00
2018-12-24T08:26:30.020Z,7.00
2018-12-24T08:28:56.982Z,7.00
2018-12-24T08:31:23.949Z,7.10
2018-12-24T08:33:50.897Z,7.10
2018-12-24T08:36:18.224Z,7.10
2018-12-24T08:38:45.214Z,7.10
2018-12-24T08:41:12.233Z,7.10
2018-12-24T08:43:39.197Z,7.30
2018-12-24T08:46:06.122Z,7.30
2018-12-24T08:48:33.075Z,7.30
2018-12-24T08:51:00.028Z,7.30
2018-12-24T08:53:26.968Z,7.30
2018-12-24T08:55:53.912Z,7.20
2018-12-24T08:58:20.883Z,7.10
2018-12-24T09:00:47.816Z,7.30
2018-12-24T09:03:14.773Z,7.20
2018-12-24T09:05:41.773Z,7.10
2018-12-24T09:08:08.723Z,7.20
2018-12-24T09:10:36.005Z,7.20
2018-12-24T09:13:02.964Z,7.10
2018-12-24T09:15:29.969Z,7.20
2018-12-24T09:17:56.920Z,7.40
2018-12-24T09:20:23.904Z,7.60
2018-12-24T09:22:50.851Z,7.60
2018-12-24T09:25:17.837Z,7.80
2018-12-24T09:27:44.900Z,7.80
2018-12-24T09:30:15.188Z,7.90
2018-12-24T09:32:42.123Z,7.80
2018-12-24T09:35:09.096Z,7.90
2018-12-24T09:37:36.025Z,7.90
2018-12-24T09:40:03.128Z,8.00
2018-12-24T09:42:30.108Z,7.90
2018-12-24T09:44:59.074Z,8.00
2018-12-24T09:47:24.105Z,7.90
2018-12-24T09:49:51.101Z,7.90
2018-12-24T09:52:18.423Z,7.70
2018-12-24T09:54:45.387Z,8.10
2018-12-24T09:57:12.451Z,8.10
2018-12-24T09:59:39.463Z,8.20
2018-12-24T10:02:06.447Z,8.20
2018-12-24T10:04:37.080Z,8.10
2018-12-24T10:07:30.996Z,8.00
2018-12-24T10:09:57.971Z,7.90
2018-12-24T10:12:25.300Z,7.60
2018-12-24T10:14:52.243Z,7.50
2018-12-24T10:17:19.231Z,7.40
2018-12-24T10:19:46.172Z,7.50
2018-12-24T10:22:13.120Z,7.60
2018-12-24T10:24:40.221Z,7.70
2018-12-24T10:27:07.377Z,7.60
2018-12-24T10:29:34.378Z,7.50
2018-12-24T10:32:01.417Z,7.40
2018-12-24T10:34:28.424Z,7.50
2018-12-24T10:36:55.368Z,7.70
2018-12-24T10:39:22.353Z,7.10
2018-12-24T10:41:49.334Z,7.80
2018-12-24T10:44:16.353Z,7.90
2018-12-24T10:46:43.348Z,7.80
2018-12-24T10:49:10.334Z,7.90
2018-12-24T10:51:37.263Z,7.90
2018-12-24T10:54:04.231Z,7.90
2018-12-24T10:56:31.324Z,7.90
2018-12-24T10:58:58.348Z,8.10
2018-12-24T11:01:25.319Z,8.00
2018-12-24T11:03:52.392Z,8.50
2018-12-24T11:06:19.373Z,8.20
2018-12-24T11:08:46.456Z,8.40
2018-12-24T11:11:13.492Z,8.30
2018-12-24T11:13:41.097Z,8.20
2018-12-24T11:16:08.060Z,8.20
2018-12-24T11:18:35.032Z,7.80
2018-12-24T11:21:01.976Z,7.90
2018-12-24T11:23:29.060Z,8.00
2018-12-24T11:25:56.032Z,7.90
2018-12-24T11:28:22.970Z,8.00
2018-12-24T11:30:50.365Z,8.00
2018-12-24T11:33:17.318Z,7.80
2018-12-24T11:35:44.286Z,7.80
2018-12-24T11:38:11.243Z,7.80
2018-12-24T11:40:38.176Z,7.80
2018-12-24T11:43:05.141Z,7.90
2018-12-24T11:45:34.122Z,8.00
2018-12-24T11:47:59.021Z,8.00
2018-12-24T11:50:25.992Z,8.00
2018-12-24T11:52:53.003Z,8.10
2018-12-24T11:55:19.943Z,8.10
2018-12-24T11:57:47.499Z,8.10
2018-12-24T12:00:13.859Z,8.20
2018-12-24T12:02:40.988Z,8.20
2018-12-24T12:05:07.948Z,8.20
2018-12-24T12:07:34.974Z,8.10
2018-12-24T12:10:01.912Z,8.00
2018-12-24T12:12:28.883Z,7.90
2018-12-24T12:14:56.241Z,8.10
2018-12-24T12:17:23.205Z,8.30
2018-12-24T12:19:50.196Z,8.30
2018-12-24T12:22:17.240Z,8.50
2018-12-24T12:24:44.187Z,8.60
2018-12-24T12:27:11.144Z,8.60
2018-12-24T12:29:38.217Z,8.90
2018-12-24T12:32:05.307Z,9.30
2018-12-24T12:34:32.359Z,9.80
2018-12-24T12:36:59.544Z,9.90
2018-12-24T12:39:26.554Z,10.00
2018-12-24T12:41:53.575Z,10.00
2018-12-24T12:44:20.512Z,9.60
2018-12-24T12:46:47.455Z,9.40
2018-12-24T12:49:14.530Z,9.20
2018-12-24T12:51:41.443Z,9.00
2018-12-24T12:54:08.451Z,8.80
2018-12-24T12:56:35.400Z,8.80
2018-12-24T12:59:02.352Z,9.10
2018-12-24T13:01:29.335Z,9.50
2018-12-24T13:03:56.290Z,9.60
2018-12-24T13:06:23.301Z,9.60
2018-12-24T13:08:50.249Z,9.50
2018-12-24T13:11:17.224Z,9.50
2018-12-24T13:13:44.209Z,9.60
2018-12-24T13:16:12.005Z,9.40
2018-12-24T13:18:39.011Z,9.20
2018-12-24T13:21:06.039Z,9.40
2018-12-24T13:23:32.991Z,9.50
2018-12-24T13:25:59.996Z,9.60
2018-12-24T13:28:27.382Z,9.50
2018-12-24T13:30:54.310Z,9.40
2018-12-24T13:33:21.265Z,9.30
2018-12-24T13:35:48.645Z,9.40
2018-12-24T13:38:16.255Z,9.50
2018-12-24T13:40:43.233Z,9.50
2018-12-24T13:43:10.216Z,9.40
2018-12-24T13:45:37.188Z,9.10
2018-12-24T13:48:04.168Z,9.20
2018-12-24T13:50:31.269Z,9.10
2018-12-24T13:52:58.245Z,9.00
2018-12-24T13:55:25.178Z,8.80
2018-12-24T13:57:52.116Z,8.80
2018-12-24T14:00:19.063Z,8.60
2018-12-24T14:02:46.028Z,8.30
2018-12-24T14:05:13.018Z,8.40
2018-12-24T14:07:39.960Z,8.30
2018-12-24T14:10:06.920Z,8.40
2018-12-24T14:12:33.949Z,8.50
2018-12-24T14:15:01.001Z,8.50
2018-12-24T14:17:28.265Z,8.60
2018-12-24T14:19:55.256Z,8.30
2018-12-24T14:22:22.179Z,7.60
2018-12-24T14:24:49.116Z,7.40
2018-12-24T14:27:16.093Z,7.30
2018-12-24T14:29:45.478Z,7.20
2018-12-24T14:32:10.869Z,7.20
2018-12-24T14:34:37.897Z,7.10
2018-12-24T14:37:04.884Z,7.20
2018-12-24T14:39:31.820Z,7.20
2018-12-24T14:41:58.824Z,7.20
2018-12-24T14:44:25.840Z,7.10
2018-12-24T14:46:52.820Z,7.30
2018-12-24T14:49:19.780Z,7.30
2018-12-24T14:51:46.758Z,7.20
2018-12-24T14:54:13.791Z,7.30
2018-12-24T14:56:40.767Z,7.30
2018-12-24T14:59:07.704Z,7.20
2018-12-24T15:01:34.718Z,7.10
2018-12-24T15:04:01.681Z,7.20
2018-12-24T15:06:28.658Z,7.10
2018-12-24T15:08:55.611Z,7.30
2018-12-24T15:11:22.617Z,7.20
2018-12-24T15:13:49.552Z,7.30
2018-12-24T15:16:16.515Z,7.40
2018-12-24T15:18:44.025Z,7.30
2018-12-24T15:21:10.968Z,7.40
2018-12-24T15:23:37.940Z,7.50
2018-12-24T15:26:04.965Z,7.50
2018-12-24T15:28:31.913Z,7.50
2018-12-24T15:30:58.978Z,7.40
2018-12-24T15:33:25.961Z,7.40
2018-12-24T15:35:52.952Z,7.40
2018-12-24T15:38:20.469Z,7.40
2018-12-24T15:40:47.380Z,7.30
2018-12-24T15:43:14.338Z,7.40
2018-12-24T15:45:41.306Z,7.30
2018-12-24T15:48:08.267Z,7.00
2018-12-24T15:50:35.285Z,6.80
2018-12-24T15:53:02.229Z,6.70
2018-12-24T15:55:29.208Z,6.80
2018-12-24T15:57:56.191Z,6.70
2018-12-24T16:00:23.204Z,6.80
2018-12-24T16:02:50.189Z,6.90
2018-12-24T16:05:17.252Z,6.70
2018-12-24T16:07:44.269Z,6.80
2018-12-24T16:10:11.252Z,6.90
2018-12-24T16:12:38.321Z,6.80
2018-12-24T16:15:05.352Z,6.70
2018-12-24T16:17:32.317Z,6.70
2018-12-24T16:19:59.456Z,6.80
2018-12-24T16:22:26.401Z,6.90
2018-12-24T16:24:53.348Z,6.90
2018-12-24T16:27:20.310Z,6.90
2018-12-24T16:29:47.245Z,6.80
2018-12-24T16:32:14.229Z,6.90
2018-12-24T16:34:41.193Z,6.90
2018-12-24T16:37:08.216Z,6.80
2018-12-24T16:39:35.188Z,6.70
2018-12-24T16:42:02.131Z,6.80
2018-12-24T16:44:29.083Z,6.80
2018-12-24T16:46:59.442Z,7.10
2018-12-24T16:49:22.996Z,6.90
2018-12-24T16:51:50.052Z,6.90
2018-12-24T16:54:17.013Z,7.30
2018-12-24T16:56:43.980Z,6.90
2018-12-24T16:59:10.924Z,6.90
2018-12-24T17:01:37.991Z,6.90
2018-12-24T17:04:04.941Z,6.90
2018-12-24T17:06:31.880Z,6.70
2018-12-24T17:09:00.177Z,6.50
2018-12-24T17:11:25.838Z,6.50
2018-12-24T17:13:52.775Z,6.40
2018-12-24T17:16:20.040Z,6.50
2018-12-24T17:18:46.984Z,6.40
2018-12-24T17:21:14.378Z,6.40
2018-12-24T17:23:41.324Z,6.50
2018-12-24T17:26:08.606Z,6.40
2018-12-24T17:28:35.562Z,6.40
2018-12-24T17:31:02.734Z,6.30
2018-12-24T17:33:29.716Z,6.50
2018-12-24T17:35:56.682Z,6.30
2018-12-24T17:38:23.648Z,6.10
2018-12-24T17:40:50.591Z,6.00
2018-12-24T17:43:17.554Z,5.90
2018-12-24T17:45:44.508Z,5.90
2018-12-24T17:48:11.444Z,6.10
2018-12-24T17:50:38.391Z,6.20
2018-12-24T17:53:05.383Z,6.20
2018-12-24T17:55:32.330Z,6.10
2018-12-24T17:57:59.288Z,6.20
2018-12-24T18:00:26.279Z,6.40
2018-12-24T18:02:53.241Z,6.10
2018-12-24T18:05:20.188Z,6.20
2018-12-24T18:07:47.158Z,6.40
2018-12-24T18:10:14.098Z,6.50
2018-12-24T18:12:41.040Z,6.40
2018-12-24T18:15:08.046Z,6.40
2018-12-24T18:17:34.988Z,6.40
2018-12-24T18:20:01.928Z,6.40
2018-12-24T18:22:29.567Z,6.20
2018-12-24T18:24:56.545Z,5.60
2018-12-24T18:27:24.385Z,6.00
2018-12-24T18:29:50.717Z,6.00
2018-12-24T18:32:17.661Z,6.00
2018-12-24T18:34:44.605Z,6.00
2018-12-24T18:37:11.571Z,6.00
2018-12-24T18:39:38.568Z,6.10
2018-12-24T18:42:05.536Z,6.00
2018-12-24T18:44:32.498Z,6.10
2018-12-24T18:46:59.523Z,6.10
2018-12-24T18:49:26.498Z,6.10
2018-12-24T18:51:53.468Z,6.00
2018-12-24T18:54:20.416Z,6.10
2018-12-24T18:56:47.381Z,6.20
2018-12-24T18:59:14.341Z,6.20
2018-12-24T19:01:41.309Z,6.10
2018-12-24T19:04:08.317Z,6.10
2018-12-24T19:06:35.293Z,6.10
2018-12-24T19:09:02.459Z,7.10
2018-12-24T19:11:29.416Z,6.10
2018-12-24T19:13:56.417Z,6.30
2018-12-24T19:16:23.364Z,6.20
2018-12-24T19:18:50.293Z,6.20
2018-12-24T19:21:17.298Z,6.20
2018-12-24T19:23:44.737Z,6.20
2018-12-24T19:26:11.704Z,6.20
2018-12-24T19:28:38.709Z,6.20
2018-12-24T19:31:05.656Z,6.30
2018-12-24T19:33:32.605Z,6.30
2018-12-24T19:35:59.646Z,6.30
2018-12-24T19:38:26.581Z,6.20
2018-12-24T19:40:53.526Z,6.20
2018-12-24T19:43:20.485Z,6.20
2018-12-24T19:45:47.529Z,6.20
2018-12-24T19:48:14.474Z,6.20
2018-12-24T19:50:41.582Z,6.00
2018-12-24T19:53:08.547Z,5.70
2018-12-24T19:55:35.390Z,5.60
2018-12-24T19:58:02.369Z,5.80
2018-12-24T20:00:29.365Z,5.80
2018-12-24T20:02:56.322Z,5.90
2018-12-24T20:05:23.320Z,5.70
2018-12-24T20:07:50.335Z,5.90
2018-12-24T20:10:17.308Z,5.90
2018-12-24T20:12:44.276Z,6.00
2018-12-24T20:15:11.228Z,6.10
2018-12-24T20:17:38.210Z,6.10
2018-12-24T20:20:05.169Z,6.10
2018-12-24T20:22:32.139Z,6.10
2018-12-24T20:24:59.332Z,6.10
2018-12-24T20:27:26.317Z,5.70
2018-12-24T20:29:53.293Z,5.70
2018-12-24T20:32:20.269Z,5.70
2018-12-24T20:34:47.233Z,5.70
2018-12-24T20:37:14.531Z,5.90
2018-12-24T20:39:41.673Z,5.90
2018-12-24T20:42:09.820Z,6.00
2018-12-24T20:44:36.752Z,6.10
2018-12-24T20:47:03.709Z,5.90
2018-12-24T20:49:30.684Z,5.70
2018-12-24T20:51:57.760Z,5.50
2018-12-24T20:54:24.695Z,5.60
2018-12-24T20:56:51.730Z,5.60
2018-12-24T20:59:18.661Z,5.50
2018-12-24T21:01:45.622Z,5.50
2018-12-24T21:04:12.575Z,5.60
2018-12-24T21:06:39.523Z,5.60
2018-12-24T21:09:07.748Z,5.50
2018-12-24T21:11:34.756Z,5.60
2018-12-24T21:14:02.084Z,5.20
2018-12-24T21:16:29.016Z,5.20
2018-12-24T21:18:55.983Z,5.20
2018-12-24T21:21:23.034Z,5.00
2018-12-24T21:23:49.896Z,5.10
2018-12-24T21:26:17.694Z,4.70
2018-12-24T21:28:44.667Z,4.70
2018-12-24T21:31:11.664Z,4.80
2018-12-24T21:33:38.643Z,4.90
2018-12-24T21:36:05.610Z,4.90
2018-12-24T21:38:32.617Z,4.70
2018-12-24T21:40:59.605Z,4.60
2018-12-24T21:43:26.548Z,4.60
2018-12-24T21:45:53.482Z,4.60
2018-12-24T21:48:23.947Z,4.40
2018-12-24T21:50:47.407Z,4.40
2018-12-24T21:53:14.341Z,4.40
2018-12-24T21:55:41.302Z,4.30
2018-12-24T21:58:08.312Z,4.30
2018-12-24T22:00:35.296Z,4.30
2018-12-24T22:03:02.310Z,4.40
2018-12-24T22:05:29.260Z,4.60
2018-12-24T22:07:56.205Z,4.50
2018-12-24T22:10:23.189Z,4.50
2018-12-24T22:12:50.123Z,4.50
2018-12-24T22:15:17.064Z,4.60
2018-12-24T22:17:44.036Z,4.40
2018-12-24T22:20:10.951Z,4.40
2018-12-24T22:22:37.896Z,4.40
2018-12-24T22:25:04.867Z,4.40
2018-12-24T22:27:32.499Z,4.40
2018-12-24T22:30:00.924Z,4.50
2018-12-24T22:32:27.876Z,4.90
2018-12-24T22:34:54.815Z,4.40
2018-12-24T22:37:21.768Z,4.50
2018-12-24T22:39:48.753Z,4.50
2018-12-24T22:42:15.728Z,4.50
2018-12-24T22:44:42.683Z,4.30
2018-12-24T22:47:09.740Z,4.30
2018-12-24T22:49:36.687Z,4.20
2018-12-24T22:52:03.637Z,4.10
2018-12-24T22:54:30.635Z,3.70
2018-12-24T22:56:57.587Z,4.30
2018-12-24T22:59:24.558Z,3.40
2018-12-24T23:01:51.520Z,3.40
2018-12-24T23:04:18.461Z,3.70
2018-12-24T23:06:45.389Z,3.90
2018-12-24T23:09:12.433Z,4.00
2018-12-24T23:11:39.377Z,4.00
2018-12-24T23:14:06.320Z,3.90
2018-12-24T23:16:33.297Z,3.80
2018-12-24T23:19:00.238Z,3.80
2018-12-24T23:21:27.183Z,4.10
2018-12-24T23:23:54.166Z,3.90
2018-12-24T23:26:21.099Z,3.90
2018-12-24T23:28:48.281Z,4.10
2018-12-24T23:31:15.247Z,4.10
2018-12-24T23:33:42.296Z,4.00
2018-12-24T23:36:09.159Z,3.90
2018-12-24T23:38:36.156Z,3.90
2018-12-24T23:41:03.123Z,3.70
2018-12-24T23:43:30.071Z,3.60
2018-12-24T23:45:57.026Z,3.50
2018-12-24T23:48:24.017Z,3.50
2018-12-24T23:50:50.964Z,3.50
2018-12-24T23:53:17.963Z,3.40
2018-12-24T23:55:50.715Z,3.50
2018-12-24T23:58:17.663Z,3.80
